Terminal Aerodrome Forecast
Issued by NWS Missoula, MT

Home | Current Version | Previous Version | Text Only | Print | Product List | Glossary On
Versions: 1 2 3 4 5 6 7 8 9 10 11 12 13 14 15 16 17
000
FTUS45 KMSO 251120
TAFMSO
TAF
KMSO 251120Z 2512/2612 32007KT 2SM -SN OVC015
     FM251300 31005KT P6SM VCSH OVC025
     FM252100 VRB03KT P6SM OVC050
     FM260900 VRB03KT P6SM VCSH OVC030=

USA.gov is the U.S. government's official web portal to all federal, state and local government web resources and services.